DGRLG EDDH-EDDH
Flight info
| Callsign | DGRLG |
|---|---|
| Flight time | 0h 53m |
| Altitude | 3000 |
| Route | HAM |
| Aircraft | DA42/L-SDFGRY/C |
Departure
| Time | 2026-05-04 17:28 |
|---|---|
| Airport | Hamburg Helmut Schmidt Airport (EDDH) |
Arrival
| Time | 2026-05-04 18:21 |
|---|---|
| Airport | Hamburg Helmut Schmidt Airport (EDDH) |
| Time | Latitude | Longitude | Altitude | Speed | Heading |
|---|---|---|---|---|---|
| 2026-05-04 17:10 | 53.62616 | 9.98907 | 41 ft | 0 kts | 243° |
| 2026-05-04 17:23 | 53.62824 | 9.98827 | 41 ft | 14 kts | 49° |
| 2026-05-04 17:23 | 53.62904 | 9.98985 | 41 ft | 20 kts | 51° |
| 2026-05-04 17:23 | 53.63075 | 9.99286 | 41 ft | 16 kts | 21° |
| 2026-05-04 17:24 | 53.63146 | 9.99318 | 41 ft | 4 kts | 14° |
| 2026-05-04 17:24 | 53.63149 | 9.99319 | 41 ft | 0 kts | 13° |
| 2026-05-04 17:27 | 53.63362 | 9.99318 | 41 ft | 30 kts | 332° |
| 2026-05-04 17:27 | 53.64265 | 9.98545 | 283 ft | 90 kts | 332° |
| 2026-05-04 17:28 | 53.65395 | 9.97576 | 925 ft | 92 kts | 330° |
| 2026-05-04 17:29 | 53.67106 | 9.96109 | 1902 ft | 94 kts | 330° |
| 2026-05-04 17:29 | 53.68851 | 9.94609 | 2933 ft | 95 kts | 327° |
| 2026-05-04 17:30 | 53.70731 | 9.94364 | 3972 ft | 111 kts | 40° |
| 2026-05-04 17:31 | 53.71784 | 9.96350 | 4644 ft | 115 kts | 44° |
| 2026-05-04 17:31 | 53.73593 | 9.99790 | 5011 ft | 153 kts | 44° |
| 2026-05-04 17:32 | 53.75107 | 10.02587 | 5011 ft | 167 kts | 44° |
| 2026-05-04 17:33 | 53.77604 | 10.07161 | 4464 ft | 195 kts | 44° |
| 2026-05-04 17:33 | 53.78553 | 10.08868 | 4058 ft | 202 kts | 44° |
| 2026-05-04 17:34 | 53.81209 | 10.13657 | 4001 ft | 176 kts | 44° |
| 2026-05-04 17:34 | 53.82035 | 10.15163 | 4011 ft | 173 kts | 44° |
| 2026-05-04 17:35 | 53.82441 | 10.20641 | 3729 ft | 183 kts | 136° |
| 2026-05-04 17:35 | 53.80513 | 10.23490 | 3374 ft | 185 kts | 143° |
| 2026-05-04 17:35 | 53.79515 | 10.24863 | 3198 ft | 185 kts | 144° |
| 2026-05-04 17:36 | 53.78447 | 10.26028 | 3009 ft | 182 kts | 166° |
| 2026-05-04 17:36 | 53.77259 | 10.26003 | 3007 ft | 167 kts | 199° |
| 2026-05-04 17:36 | 53.76254 | 10.25153 | 3003 ft | 159 kts | 217° |
| 2026-05-04 17:36 | 53.75463 | 10.23900 | 3000 ft | 155 kts | 230° |
| 2026-05-04 17:37 | 53.74756 | 10.22548 | 3008 ft | 153 kts | 232° |
| 2026-05-04 17:37 | 53.74069 | 10.21183 | 3007 ft | 152 kts | 233° |
| 2026-05-04 17:37 | 53.73398 | 10.19808 | 3008 ft | 151 kts | 233° |
| 2026-05-04 17:37 | 53.72714 | 10.18421 | 2856 ft | 156 kts | 233° |
| 2026-05-04 17:38 | 53.72007 | 10.16987 | 2637 ft | 160 kts | 233° |
| 2026-05-04 17:38 | 53.71290 | 10.15536 | 2427 ft | 162 kts | 233° |
| 2026-05-04 17:38 | 53.70564 | 10.14064 | 2200 ft | 164 kts | 233° |
| 2026-05-04 17:38 | 53.69826 | 10.12564 | 1975 ft | 168 kts | 233° |
| 2026-05-04 17:39 | 53.68344 | 10.09563 | 1523 ft | 165 kts | 232° |
| 2026-05-04 17:39 | 53.67634 | 10.08123 | 1304 ft | 153 kts | 233° |
| 2026-05-04 17:39 | 53.66975 | 10.06789 | 1100 ft | 144 kts | 234° |
| 2026-05-04 17:40 | 53.66378 | 10.05581 | 920 ft | 126 kts | 234° |
| 2026-05-04 17:40 | 53.65851 | 10.04514 | 761 ft | 113 kts | 233° |
| 2026-05-04 17:40 | 53.65364 | 10.03532 | 627 ft | 103 kts | 233° |
| 2026-05-04 17:40 | 53.64929 | 10.02650 | 484 ft | 90 kts | 231° |
| 2026-05-04 17:41 | 53.64558 | 10.01901 | 390 ft | 80 kts | 231° |
| 2026-05-04 17:41 | 53.64193 | 10.01160 | 279 ft | 85 kts | 232° |
| 2026-05-04 17:41 | 53.63803 | 10.00370 | 147 ft | 87 kts | 231° |
| 2026-05-04 17:41 | 53.63429 | 9.99615 | 45 ft | 78 kts | 231° |
| 2026-05-04 17:42 | 53.63153 | 9.99057 | 41 ft | 64 kts | 230° |
| 2026-05-04 17:42 | 53.62776 | 9.98290 | 70 ft | 102 kts | 231° |
| 2026-05-04 17:42 | 53.62275 | 9.97300 | 305 ft | 113 kts | 232° |
| 2026-05-04 17:42 | 53.61788 | 9.96324 | 750 ft | 100 kts | 232° |
| 2026-05-04 17:43 | 53.61360 | 9.95493 | 1229 ft | 93 kts | 233° |
| 2026-05-04 17:43 | 53.60934 | 9.94653 | 1598 ft | 94 kts | 234° |
| 2026-05-04 17:43 | 53.60510 | 9.93797 | 1971 ft | 95 kts | 234° |
| 2026-05-04 17:43 | 53.60091 | 9.92950 | 2379 ft | 93 kts | 235° |
| 2026-05-04 17:44 | 53.59676 | 9.92113 | 2757 ft | 92 kts | 235° |
| 2026-05-04 17:44 | 53.59171 | 9.91463 | 3145 ft | 96 kts | 200° |
| 2026-05-04 17:44 | 53.58495 | 9.91628 | 3481 ft | 107 kts | 156° |
| 2026-05-04 17:44 | 53.57998 | 9.92644 | 3753 ft | 121 kts | 110° |
| 2026-05-04 17:45 | 53.58006 | 9.94090 | 4006 ft | 130 kts | 77° |
| 2026-05-04 17:45 | 53.58257 | 9.95710 | 4006 ft | 153 kts | 74° |
| 2026-05-04 17:45 | 53.58535 | 9.97503 | 4005 ft | 162 kts | 74° |
| 2026-05-04 17:45 | 53.58825 | 9.99366 | 4008 ft | 167 kts | 74° |
| 2026-05-04 17:46 | 53.59121 | 10.01277 | 4008 ft | 171 kts | 74° |
| 2026-05-04 17:46 | 53.59424 | 10.03223 | 3996 ft | 173 kts | 74° |
| 2026-05-04 17:46 | 53.59739 | 10.05225 | 3860 ft | 180 kts | 74° |
| 2026-05-04 17:46 | 53.60063 | 10.07288 | 3734 ft | 184 kts | 74° |
| 2026-05-04 17:47 | 53.60393 | 10.09390 | 3583 ft | 187 kts | 74° |
| 2026-05-04 17:47 | 53.60726 | 10.11513 | 3409 ft | 189 kts | 74° |
| 2026-05-04 17:47 | 53.61061 | 10.13662 | 3232 ft | 190 kts | 74° |
| 2026-05-04 17:47 | 53.61399 | 10.15809 | 3049 ft | 189 kts | 74° |
| 2026-05-04 17:48 | 53.61733 | 10.17921 | 3007 ft | 182 kts | 74° |
| 2026-05-04 17:48 | 53.62051 | 10.19954 | 3003 ft | 177 kts | 74° |
| 2026-05-04 17:48 | 53.62360 | 10.21939 | 3007 ft | 174 kts | 74° |
| 2026-05-04 17:48 | 53.62663 | 10.23900 | 3006 ft | 172 kts | 74° |
| 2026-05-04 17:49 | 53.62965 | 10.25849 | 3008 ft | 171 kts | 74° |
| 2026-05-04 17:49 | 53.63411 | 10.27677 | 2999 ft | 168 kts | 47° |
| 2026-05-04 17:49 | 53.64380 | 10.28651 | 2920 ft | 165 kts | 6° |
| 2026-05-04 17:49 | 53.65480 | 10.28359 | 2798 ft | 162 kts | 330° |
| 2026-05-04 17:50 | 53.66456 | 10.27413 | 2669 ft | 162 kts | 325° |
| 2026-05-04 17:50 | 53.67410 | 10.26400 | 2541 ft | 162 kts | 324° |
| 2026-05-04 17:50 | 53.68038 | 10.25712 | 2463 ft | 163 kts | 324° |
| 2026-05-04 17:50 | 53.68997 | 10.24659 | 2333 ft | 165 kts | 324° |
| 2026-05-04 17:51 | 53.69959 | 10.23596 | 2206 ft | 166 kts | 324° |
| 2026-05-04 17:51 | 53.70922 | 10.22513 | 2076 ft | 166 kts | 324° |
| 2026-05-04 17:51 | 53.71846 | 10.21372 | 1998 ft | 162 kts | 311° |
| 2026-05-04 17:51 | 53.72243 | 10.19689 | 2002 ft | 155 kts | 272° |
| 2026-05-04 17:52 | 53.72134 | 10.17902 | 2006 ft | 152 kts | 255° |
| 2026-05-04 17:52 | 53.71621 | 10.16349 | 2013 ft | 152 kts | 237° |
| 2026-05-04 17:52 | 53.70972 | 10.14926 | 2005 ft | 153 kts | 234° |
| 2026-05-04 17:52 | 53.70307 | 10.13530 | 2006 ft | 152 kts | 233° |
| 2026-05-04 17:53 | 53.69619 | 10.12136 | 1903 ft | 160 kts | 232° |
| 2026-05-04 17:53 | 53.68890 | 10.10661 | 1687 ft | 167 kts | 233° |
| 2026-05-04 17:53 | 53.68141 | 10.09144 | 1457 ft | 167 kts | 234° |
| 2026-05-04 17:53 | 53.67409 | 10.07663 | 1241 ft | 160 kts | 232° |
| 2026-05-04 17:54 | 53.66714 | 10.06260 | 1015 ft | 149 kts | 233° |
| 2026-05-04 17:54 | 53.66113 | 10.05044 | 836 ft | 125 kts | 234° |
| 2026-05-04 17:54 | 53.65586 | 10.03983 | 682 ft | 109 kts | 235° |
| 2026-05-04 17:54 | 53.65132 | 10.03061 | 549 ft | 97 kts | 234° |
| 2026-05-04 17:55 | 53.64731 | 10.02243 | 448 ft | 82 kts | 234° |
| 2026-05-04 17:55 | 53.64360 | 10.01503 | 313 ft | 81 kts | 232° |
| 2026-05-04 17:55 | 53.64004 | 10.00781 | 207 ft | 82 kts | 232° |
| 2026-05-04 17:55 | 53.63639 | 10.00040 | 96 ft | 83 kts | 232° |
| 2026-05-04 17:56 | 53.63312 | 9.99376 | 41 ft | 56 kts | 230° |
| 2026-05-04 17:56 | 53.63032 | 9.98810 | 40 ft | 84 kts | 231° |
| 2026-05-04 17:56 | 53.62600 | 9.97925 | 175 ft | 105 kts | 232° |
| 2026-05-04 17:56 | 53.62145 | 9.97030 | 651 ft | 94 kts | 233° |
| 2026-05-04 17:57 | 53.61698 | 9.96270 | 1054 ft | 91 kts | 231° |
| 2026-05-04 17:57 | 53.61277 | 9.95472 | 1447 ft | 92 kts | 236° |
| 2026-05-04 17:57 | 53.60859 | 9.94659 | 1832 ft | 92 kts | 236° |
| 2026-05-04 17:57 | 53.60443 | 9.93847 | 2221 ft | 91 kts | 235° |
| 2026-05-04 17:58 | 53.60039 | 9.93044 | 2624 ft | 89 kts | 236° |
| 2026-05-04 17:58 | 53.59629 | 9.92260 | 2979 ft | 91 kts | 223° |
| 2026-05-04 17:58 | 53.59021 | 9.92009 | 3358 ft | 98 kts | 177° |
| 2026-05-04 17:58 | 53.58376 | 9.92645 | 3628 ft | 117 kts | 133° |
| 2026-05-04 17:59 | 53.58108 | 9.93968 | 3899 ft | 129 kts | 90° |
| 2026-05-04 17:59 | 53.58177 | 9.95581 | 4007 ft | 147 kts | 84° |
| 2026-05-04 17:59 | 53.58392 | 9.99323 | 4009 ft | 170 kts | 84° |
| 2026-05-04 18:00 | 53.58505 | 10.01310 | 4006 ft | 175 kts | 84° |
| 2026-05-04 18:00 | 53.58625 | 10.03392 | 4003 ft | 178 kts | 84° |
| 2026-05-04 18:00 | 53.58746 | 10.05438 | 4004 ft | 178 kts | 84° |
| 2026-05-04 18:00 | 53.58868 | 10.07513 | 4002 ft | 178 kts | 84° |
| 2026-05-04 18:01 | 53.58988 | 10.09594 | 4006 ft | 178 kts | 84° |
| 2026-05-04 18:01 | 53.59109 | 10.11669 | 4005 ft | 178 kts | 84° |
| 2026-05-04 18:01 | 53.59230 | 10.13739 | 4007 ft | 178 kts | 84° |
| 2026-05-04 18:02 | 53.59476 | 10.17895 | 4004 ft | 178 kts | 81° |
| 2026-05-04 18:02 | 53.60019 | 10.19753 | 4005 ft | 175 kts | 48° |
| 2026-05-04 18:02 | 53.60824 | 10.21296 | 4009 ft | 175 kts | 44° |
| 2026-05-04 18:02 | 53.61651 | 10.22811 | 4009 ft | 176 kts | 44° |
| 2026-05-04 18:03 | 53.62484 | 10.24324 | 4010 ft | 176 kts | 44° |
| 2026-05-04 18:03 | 53.63312 | 10.25820 | 4007 ft | 177 kts | 44° |
| 2026-05-04 18:03 | 53.64149 | 10.27323 | 4008 ft | 176 kts | 44° |
| 2026-05-04 18:03 | 53.64980 | 10.28821 | 4007 ft | 175 kts | 44° |
| 2026-05-04 18:04 | 53.65810 | 10.30324 | 4008 ft | 175 kts | 44° |
| 2026-05-04 18:04 | 53.66653 | 10.31843 | 4007 ft | 175 kts | 44° |
| 2026-05-04 18:04 | 53.68311 | 10.34841 | 4010 ft | 175 kts | 44° |
| 2026-05-04 18:05 | 53.69134 | 10.36327 | 4006 ft | 175 kts | 44° |
| 2026-05-04 18:05 | 53.69958 | 10.37815 | 4005 ft | 171 kts | 43° |
| 2026-05-04 18:05 | 53.70980 | 10.38668 | 4001 ft | 164 kts | 1° |
| 2026-05-04 18:05 | 53.72073 | 10.38326 | 4011 ft | 159 kts | 336° |
| 2026-05-04 18:06 | 53.74143 | 10.36986 | 4010 ft | 159 kts | 334° |
| 2026-05-04 18:06 | 53.75201 | 10.36289 | 3861 ft | 166 kts | 333° |
| 2026-05-04 18:06 | 53.76030 | 10.35003 | 3703 ft | 164 kts | 294° |
| 2026-05-04 18:07 | 53.76208 | 10.33132 | 3557 ft | 163 kts | 268° |
| 2026-05-04 18:07 | 53.76125 | 10.31213 | 3407 ft | 164 kts | 264° |
| 2026-05-04 18:07 | 53.76011 | 10.29287 | 3256 ft | 166 kts | 264° |
| 2026-05-04 18:07 | 53.75889 | 10.27345 | 3103 ft | 166 kts | 264° |
| 2026-05-04 18:08 | 53.75701 | 10.25430 | 3003 ft | 164 kts | 253° |
| 2026-05-04 18:08 | 53.75214 | 10.23719 | 3006 ft | 161 kts | 238° |
| 2026-05-04 18:08 | 53.74553 | 10.22215 | 3007 ft | 158 kts | 234° |
| 2026-05-04 18:08 | 53.73870 | 10.20774 | 3007 ft | 157 kts | 233° |
| 2026-05-04 18:09 | 53.72459 | 10.17896 | 2770 ft | 165 kts | 232° |
| 2026-05-04 18:09 | 53.70943 | 10.14826 | 2310 ft | 174 kts | 233° |
| 2026-05-04 18:10 | 53.70170 | 10.13260 | 2072 ft | 172 kts | 233° |
| 2026-05-04 18:10 | 53.69412 | 10.11725 | 1845 ft | 169 kts | 232° |
| 2026-05-04 18:10 | 53.68669 | 10.10223 | 1627 ft | 165 kts | 234° |
| 2026-05-04 18:10 | 53.67944 | 10.08747 | 1396 ft | 162 kts | 234° |
| 2026-05-04 18:11 | 53.67237 | 10.07318 | 1182 ft | 154 kts | 233° |
| 2026-05-04 18:11 | 53.66569 | 10.05972 | 972 ft | 145 kts | 234° |
| 2026-05-04 18:11 | 53.65950 | 10.04712 | 783 ft | 132 kts | 233° |
| 2026-05-04 18:11 | 53.65413 | 10.03632 | 630 ft | 108 kts | 233° |
| 2026-05-04 18:12 | 53.64969 | 10.02733 | 492 ft | 97 kts | 233° |
| 2026-05-04 18:12 | 53.64557 | 10.01900 | 409 ft | 88 kts | 234° |
| 2026-05-04 18:12 | 53.64168 | 10.01114 | 266 ft | 87 kts | 232° |
| 2026-05-04 18:12 | 53.63780 | 10.00323 | 145 ft | 88 kts | 232° |
| 2026-05-04 18:13 | 53.63407 | 9.99571 | 43 ft | 72 kts | 231° |
| 2026-05-04 18:13 | 53.63134 | 9.99019 | 41 ft | 72 kts | 230° |
| 2026-05-04 18:13 | 53.62248 | 9.97227 | 399 ft | 109 kts | 232° |
| 2026-05-04 18:14 | 53.61727 | 9.96211 | 612 ft | 121 kts | 232° |
| 2026-05-04 18:14 | 53.60973 | 9.95487 | 791 ft | 135 kts | 190° |
| 2026-05-04 18:14 | 53.60096 | 9.96062 | 885 ft | 144 kts | 131° |
| 2026-05-04 18:15 | 53.60148 | 9.99177 | 1076 ft | 144 kts | 50° |
| 2026-05-04 18:15 | 53.61585 | 10.01649 | 1055 ft | 151 kts | 43° |
| 2026-05-04 18:15 | 53.62278 | 10.02955 | 1018 ft | 149 kts | 44° |
| 2026-05-04 18:16 | 53.63103 | 10.03914 | 903 ft | 143 kts | 7° |
| 2026-05-04 18:16 | 53.63980 | 10.03344 | 770 ft | 135 kts | 319° |
| 2026-05-04 18:16 | 53.64358 | 10.02023 | 509 ft | 121 kts | 270° |
| 2026-05-04 18:17 | 53.63698 | 10.00159 | 97 ft | 86 kts | 230° |
| 2026-05-04 18:17 | 53.63359 | 9.99474 | 41 ft | 59 kts | 230° |
| 2026-05-04 18:17 | 53.62541 | 9.97817 | 248 ft | 115 kts | 230° |
| 2026-05-04 18:18 | 53.62011 | 9.96789 | 580 ft | 119 kts | 234° |
| 2026-05-04 18:18 | 53.61384 | 9.95862 | 804 ft | 128 kts | 201° |
| 2026-05-04 18:18 | 53.60492 | 9.96103 | 953 ft | 141 kts | 146° |
| 2026-05-04 18:18 | 53.59972 | 9.97503 | 975 ft | 148 kts | 97° |
| 2026-05-04 18:19 | 53.60862 | 10.00355 | 974 ft | 140 kts | 43° |
| 2026-05-04 18:19 | 53.61525 | 10.01568 | 944 ft | 142 kts | 45° |
| 2026-05-04 18:19 | 53.62190 | 10.02774 | 888 ft | 139 kts | 42° |
| 2026-05-04 18:20 | 53.62943 | 10.03689 | 852 ft | 130 kts | 5° |
| 2026-05-04 18:20 | 53.63735 | 10.03164 | 660 ft | 123 kts | 315° |
| 2026-05-04 18:20 | 53.64188 | 10.02068 | 487 ft | 105 kts | 288° |
| 2026-05-04 18:20 | 53.64094 | 10.00968 | 310 ft | 90 kts | 233° |
| 2026-05-04 18:21 | 53.63704 | 10.00181 | 158 ft | 86 kts | 232° |
| 2026-05-04 18:21 | 53.63333 | 9.99419 | 63 ft | 85 kts | 230° |
| 2026-05-04 18:21 | 53.63019 | 9.98787 | 40 ft | 49 kts | 231° |
| 2026-05-04 18:21 | 53.62867 | 9.98529 | 39 ft | 24 kts | 206° |
| 2026-05-04 18:22 | 53.62734 | 9.98472 | 40 ft | 10 kts | 181° |
| 2026-05-04 18:22 | 53.62700 | 9.98504 | 41 ft | 7 kts | 124° |
| 2026-05-04 18:22 | 53.62720 | 9.98612 | 41 ft | 15 kts | 50° |
| 2026-05-04 18:22 | 53.62791 | 9.98760 | 41 ft | 10 kts | 67° |
| 2026-05-04 18:23 | 53.62735 | 9.98847 | 41 ft | 16 kts | 153° |
| 2026-05-04 18:23 | 53.62644 | 9.98913 | 41 ft | 8 kts | 195° |
| 2026-05-04 18:23 | 53.62630 | 9.98889 | 41 ft | 0 kts | 242° |